Time;durP1;ratioP1;P1;durP2;ratioP2;P2;SDS_P1;SDS_P2;PMS_P1;PMS_P2;Temp;Humidity;BMP_temperature;BMP_pressure;BME280_temperature;BME280_humidity;BME280_pressure;Samples;Min_cycle;Max_cycle;Signal;HPM_P1;HPM_P2
2021/09/08 00:01:37;;;;;;;1.63;1.27;;;15.90;49.90;;;;;;5052241;28;20282;-60
2021/09/08 00:04:08;;;;;;;1.40;1.10;;;15.90;49.90;;;;;;5052750;28;20228;-50
2021/09/08 00:06:38;;;;;;;1.40;1.20;;;15.90;49.90;;;;;;5052052;28;20390;-51
2021/09/08 00:09:09;;;;;;;1.48;1.25;;;15.90;49.90;;;;;;5053083;28;20300;-45
2021/09/08 00:11:39;;;;;;;1.25;1.15;;;15.80;49.90;;;;;;5052943;28;20312;-54
2021/09/08 00:14:11;;;;;;;1.50;1.30;;;15.80;50.00;;;;;;5053313;28;20227;-57
2021/09/08 00:16:42;;;;;;;2.28;1.40;;;15.80;50.00;;;;;;5051993;28;20273;-59
2021/09/08 00:19:12;;;;;;;1.38;1.15;;;15.80;50.00;;;;;;5053696;28;20231;-56
2021/09/08 00:21:43;;;;;;;1.77;1.10;;;15.80;50.10;;;;;;5048145;28;20219;-54
2021/09/08 00:24:13;;;;;;;1.30;1.08;;;15.80;50.20;;;;;;5053695;28;20247;-57
2021/09/08 00:26:44;;;;;;;1.48;1.38;;;15.80;50.30;;;;;;5052703;28;20242;-58
2021/09/08 00:29:16;;;;;;;1.67;1.30;;;15.80;51.40;;;;;;5051380;28;20741;-59
2021/09/08 00:31:47;;;;;;;1.90;1.15;;;15.90;52.10;;;;;;5032801;28;20604;-55
2021/09/08 00:34:17;;;;;;;1.58;1.30;;;15.90;52.20;;;;;;5034489;28;20220;-60
2021/09/08 00:36:47;;;;;;;1.50;1.15;;;15.90;52.00;;;;;;5052283;28;20227;-49
2021/09/08 00:39:18;;;;;;;1.95;1.00;;;15.90;51.80;;;;;;5051902;28;20671;-54
2021/09/08 00:41:48;;;;;;;1.27;1.02;;;15.90;51.50;;;;;;5052122;28;20644;-54
2021/09/08 00:44:21;;;;;;;1.25;1.08;;;15.90;51.50;;;;;;5051809;28;20607;-58
2021/09/08 00:46:51;;;;;;;1.60;1.08;;;15.90;51.40;;;;;;5052032;28;20537;-56
2021/09/08 00:49:22;;;;;;;1.00;0.90;;;15.90;51.40;;;;;;5052227;28;20251;-51
2021/09/08 00:51:52;;;;;;;1.73;1.35;;;15.90;51.30;;;;;;5052972;28;20230;-56
2021/09/08 00:54:22;;;;;;;1.45;1.10;;;15.90;51.20;;;;;;5052129;28;20235;-51
2021/09/08 00:56:55;;;;;;;1.45;1.00;;;15.90;51.20;;;;;;5051080;28;20242;-48
2021/09/08 00:59:27;;;;;;;2.60;1.00;;;15.90;51.10;;;;;;5051734;28;20352;-60
2021/09/08 01:01:58;;;;;;;1.15;0.90;;;15.90;51.10;;;;;;5051947;28;20233;-62
2021/09/08 01:04:28;;;;;;;1.55;1.02;;;15.90;51.10;;;;;;5052052;28;20207;-58
2021/09/08 01:07:01;;;;;;;1.20;1.10;;;15.90;51.00;;;;;;5051631;28;20664;-60
2021/09/08 01:09:31;;;;;;;3.33;1.02;;;15.90;51.00;;;;;;5051691;28;20293;-61
2021/09/08 01:12:02;;;;;;;1.90;1.10;;;15.90;51.00;;;;;;5051370;28;20276;-59
2021/09/08 01:14:34;;;;;;;1.42;1.08;;;15.90;51.00;;;;;;5039569;28;20301;-57
2021/09/08 01:17:05;;;;;;;1.45;0.95;;;15.90;51.00;;;;;;5032078;28;20656;-62
2021/09/08 01:19:35;;;;;;;1.00;0.90;;;15.90;51.00;;;;;;5033670;28;20681;-56
2021/09/08 01:22:06;;;;;;;1.13;1.02;;;15.90;50.90;;;;;;5051949;28;20249;-60
2021/09/08 01:24:38;;;;;;;1.20;1.05;;;15.90;51.00;;;;;;5050670;28;20242;-59
2021/09/08 01:27:09;;;;;;;1.20;0.90;;;15.90;51.00;;;;;;5050715;28;20279;-55
2021/09/08 01:29:39;;;;;;;0.90;0.88;;;15.90;51.00;;;;;;5051266;28;20364;-54
2021/09/08 01:32:10;;;;;;;1.42;0.98;;;15.90;51.00;;;;;;5051019;28;20227;-49
2021/09/08 01:34:40;;;;;;;0.80;0.80;;;15.90;51.00;;;;;;5051092;28;20314;-53
2021/09/08 01:37:12;;;;;;;1.10;1.00;;;15.90;51.00;;;;;;5051644;28;20664;-62
2021/09/08 01:39:44;;;;;;;0.93;0.90;;;15.90;50.90;;;;;;5039429;28;20278;-53
2021/09/08 01:42:14;;;;;;;0.98;0.88;;;15.90;51.00;;;;;;5050633;28;20235;-61
2021/09/08 01:44:46;;;;;;;0.70;0.70;;;16.00;51.00;;;;;;5051059;28;20242;-59
2021/09/08 01:47:16;;;;;;;0.88;0.80;;;16.00;51.00;;;;;;5051177;28;20265;-60
2021/09/08 01:49:47;;;;;;;0.93;0.80;;;16.00;51.00;;;;;;5051809;28;20305;-59
2021/09/08 01:52:17;;;;;;;1.15;0.70;;;16.00;51.00;;;;;;5050196;28;20227;-60
2021/09/08 01:54:49;;;;;;;1.00;0.90;;;16.00;51.00;;;;;;5051498;28;20281;-49
2021/09/08 01:57:20;;;;;;;1.85;0.80;;;16.00;51.20;;;;;;5050809;28;20852;-59
2021/09/08 01:59:50;;;;;;;2.58;0.88;;;16.00;51.30;;;;;;5051669;28;20706;-57
2021/09/08 02:02:21;;;;;;;1.08;0.80;;;16.00;51.50;;;;;;5051343;28;20637;-59
2021/09/08 02:04:51;;;;;;;1.00;0.77;;;16.10;51.30;;;;;;5050815;28;20651;-57
2021/09/08 02:07:21;;;;;;;0.82;0.80;;;16.00;51.20;;;;;;5050475;28;20727;-60
2021/09/08 02:09:54;;;;;;;0.80;0.80;;;16.10;51.20;;;;;;5050487;28;20617;-60
2021/09/08 02:12:25;;;;;;;1.15;0.90;;;16.10;51.30;;;;;;5051244;28;20238;-46
2021/09/08 02:14:55;;;;;;;0.70;0.70;;;16.10;51.30;;;;;;5051136;28;20265;-57
2021/09/08 02:17:26;;;;;;;1.27;0.57;;;16.10;51.30;;;;;;5051596;28;20873;-60
2021/09/08 02:19:56;;;;;;;0.75;0.63;;;16.20;51.30;;;;;;5050828;28;20258;-60
2021/09/08 02:22:27;;;;;;;0.80;0.60;;;16.20;51.30;;;;;;5051414;28;20631;-57
2021/09/08 02:24:59;;;;;;;0.90;0.80;;;16.20;51.20;;;;;;5050673;28;20234;-60
2021/09/08 02:27:29;;;;;;;0.70;0.63;;;16.20;51.20;;;;;;5050883;28;20614;-53
2021/09/08 02:30:00;;;;;;;1.25;0.80;;;16.30;51.30;;;;;;5049978;28;20561;-48
2021/09/08 02:32:30;;;;;;;1.05;0.95;;;16.30;51.20;;;;;;5050788;28;20710;-54
2021/09/08 02:35:01;;;;;;;0.70;0.60;;;16.30;51.20;;;;;;5050056;28;20543;-50
2021/09/08 02:37:31;;;;;;;0.93;0.73;;;16.30;51.20;;;;;;5050116;28;20275;-48
2021/09/08 02:40:03;;;;;;;0.98;0.80;;;16.40;51.30;;;;;;5050047;28;20242;-56
2021/09/08 02:42:34;;;;;;;0.90;0.80;;;16.40;51.20;;;;;;5051066;28;20227;-51
2021/09/08 02:45:04;;;;;;;0.80;0.80;;;16.40;51.20;;;;;;5050099;28;20242;-50
2021/09/08 02:47:35;;;;;;;0.85;0.80;;;16.40;51.20;;;;;;5050616;28;20247;-47
2021/09/08 02:50:05;;;;;;;0.70;0.70;;;16.50;51.20;;;;;;5050266;28;20219;-56
2021/09/08 02:52:36;;;;;;;0.80;0.73;;;16.50;51.20;;;;;;5048941;28;20235;-46
2021/09/08 02:55:09;;;;;;;1.05;0.70;;;16.50;51.10;;;;;;5049991;28;20268;-51
2021/09/08 02:57:39;;;;;;;0.80;0.80;;;16.60;51.10;;;;;;5046208;28;20277;-53
2021/09/08 03:00:11;;;;;;;1.38;0.70;;;16.50;51.10;;;;;;5050942;28;20223;-56
2021/09/08 03:02:41;;;;;;;1.10;0.82;;;16.60;51.10;;;;;;5049367;28;20190;-51
2021/09/08 03:05:12;;;;;;;1.13;0.80;;;16.60;51.00;;;;;;5050102;28;20269;-51
2021/09/08 03:07:43;;;;;;;0.70;0.70;;;16.60;51.60;;;;;;5049924;28;20724;-53
2021/09/08 03:10:15;;;;;;;0.90;0.73;;;16.70;51.00;;;;;;5050576;28;20661;-58
2021/09/08 03:12:46;;;;;;;1.13;0.80;;;16.70;50.90;;;;;;5049749;28;20242;-54
2021/09/08 03:15:16;;;;;;;1.38;0.77;;;16.70;50.90;;;;;;5050021;28;20324;-56
2021/09/08 03:17:46;;;;;;;0.90;0.80;;;16.70;51.00;;;;;;5050314;28;20199;-58
2021/09/08 03:20:17;;;;;;;1.08;0.80;;;16.70;50.90;;;;;;5049056;28;20246;-59
2021/09/08 03:22:47;;;;;;;0.85;0.77;;;16.80;50.90;;;;;;5049818;28;20267;-53
2021/09/08 03:25:20;;;;;;;0.80;0.80;;;16.80;50.90;;;;;;5028981;28;20249;-55
2021/09/08 03:27:50;;;;;;;1.55;0.70;;;16.80;50.90;;;;;;5030714;28;20239;-53
2021/09/08 03:30:21;;;;;;;0.75;0.70;;;16.80;50.80;;;;;;5029927;28;20251;-54
2021/09/08 03:32:51;;;;;;;1.52;1.10;;;16.80;50.80;;;;;;5029593;28;20660;-51
2021/09/08 03:35:22;;;;;;;1.38;0.82;;;16.80;50.80;;;;;;5030403;28;20775;-49
2021/09/08 03:37:55;;;;;;;0.70;0.65;;;16.80;50.70;;;;;;5029892;28;20192;-54
2021/09/08 03:40:27;;;;;;;1.48;0.80;;;16.90;50.80;;;;;;5042613;28;20251;-59
2021/09/08 03:42:58;;;;;;;0.80;0.77;;;16.90;50.70;;;;;;5049952;28;20238;-53
2021/09/08 03:45:28;;;;;;;0.88;0.80;;;16.90;50.70;;;;;;5048785;28;20223;-57
2021/09/08 03:47:58;;;;;;;1.05;0.63;;;16.90;50.80;;;;;;5049130;28;20246;-50
2021/09/08 03:50:30;;;;;;;1.08;0.73;;;16.90;50.90;;;;;;5049306;28;20250;-60
2021/09/08 03:53:00;;;;;;;1.40;0.70;;;16.90;50.90;;;;;;5049606;28;20192;-55
2021/09/08 03:55:33;;;;;;;0.65;0.63;;;16.90;51.20;;;;;;5050089;28;20273;-50
2021/09/08 03:58:03;;;;;;;1.92;0.75;;;17.00;51.50;;;;;;5052629;28;20308;-60
2021/09/08 04:00:34;;;;;;;1.98;0.75;;;17.00;51.40;;;;;;5052538;28;20572;-60
2021/09/08 04:03:04;;;;;;;0.88;0.75;;;17.00;51.40;;;;;;5054030;28;20731;-59
2021/09/08 04:05:35;;;;;;;1.08;0.90;;;17.00;51.30;;;;;;5053318;28;20239;-58
2021/09/08 04:08:06;;;;;;;0.75;0.75;;;17.10;51.20;;;;;;5053417;28;20196;-57
2021/09/08 04:10:38;;;;;;;0.80;0.80;;;17.10;51.20;;;;;;5052876;28;20226;-50
2021/09/08 04:13:08;;;;;;;1.20;0.77;;;17.10;51.10;;;;;;5052147;28;20203;-49
2021/09/08 04:15:39;;;;;;;0.95;0.75;;;17.20;52.40;;;;;;5052759;28;20289;-59
2021/09/08 04:18:09;;;;;;;1.20;0.68;;;17.30;52.60;;;;;;5053614;28;20222;-59
2021/09/08 04:20:40;;;;;;;3.20;0.90;;;17.30;52.40;;;;;;5051804;28;20748;-57
2021/09/08 04:23:10;;;;;;;0.93;0.70;;;17.30;52.20;;;;;;5052939;28;20622;-55
2021/09/08 04:25:42;;;;;;;0.90;0.70;;;17.40;52.00;;;;;;5051506;28;20200;-53
2021/09/08 04:28:13;;;;;;;0.93;0.70;;;17.40;51.90;;;;;;5052981;28;20234;-59
2021/09/08 04:30:43;;;;;;;0.90;0.80;;;17.40;51.80;;;;;;5052362;28;20719;-53
2021/09/08 04:33:14;;;;;;;1.65;0.60;;;17.50;51.70;;;;;;5053210;28;20619;-58
2021/09/08 04:35:44;;;;;;;0.93;0.70;;;17.50;51.70;;;;;;5052177;28;20258;-52
2021/09/08 04:38:15;;;;;;;1.50;0.70;;;17.50;51.60;;;;;;5052329;28;20282;-54
2021/09/08 04:40:47;;;;;;;1.17;0.80;;;17.50;51.50;;;;;;5052783;28;20307;-59
2021/09/08 04:43:18;;;;;;;0.60;0.50;;;17.60;51.50;;;;;;5052192;28;20196;-54
2021/09/08 04:45:48;;;;;;;2.35;0.70;;;17.60;51.50;;;;;;5052995;28;20227;-60
2021/09/08 04:48:19;;;;;;;1.02;0.68;;;17.60;51.40;;;;;;5051622;28;20333;-50
2021/09/08 04:50:49;;;;;;;1.10;0.80;;;17.60;51.30;;;;;;5052534;28;20707;-58
2021/09/08 04:53:19;;;;;;;1.95;0.90;;;17.70;51.30;;;;;;5052722;28;20671;-53
2021/09/08 04:55:52;;;;;;;0.88;0.70;;;17.70;51.20;;;;;;5052128;28;20219;-57
2021/09/08 04:58:22;;;;;;;1.15;0.90;;;17.70;51.60;;;;;;5050656;28;20191;-58
2021/09/08 05:00:53;;;;;;;0.90;0.60;;;17.70;51.60;;;;;;5050143;28;20257;-52
2021/09/08 05:03:23;;;;;;;0.60;0.60;;;17.80;51.50;;;;;;5051373;28;20660;-60
2021/09/08 05:05:54;;;;;;;0.70;0.70;;;17.80;51.40;;;;;;5052150;28;20297;-47
2021/09/08 05:08:24;;;;;;;0.80;0.70;;;17.80;51.30;;;;;;5051217;28;20249;-60
2021/09/08 05:10:57;;;;;;;0.90;0.57;;;17.90;51.30;;;;;;5052024;28;20251;-55
2021/09/08 05:13:27;;;;;;;1.10;0.80;;;17.90;51.10;;;;;;5051558;28;20226;-52
2021/09/08 05:15:58;;;;;;;0.98;0.77;;;17.90;51.10;;;;;;5051594;28;20265;-63
2021/09/08 05:18:28;;;;;;;1.02;0.60;;;17.90;50.90;;;;;;5052103;28;20253;-61
2021/09/08 05:20:58;;;;;;;1.63;0.70;;;17.90;50.80;;;;;;5052429;28;20215;-59
2021/09/08 05:23:29;;;;;;;1.35;0.70;;;17.90;50.90;;;;;;5052554;28;20243;-56
2021/09/08 05:26:01;;;;;;;0.88;0.70;;;17.90;50.90;;;;;;5052794;28;20651;-61
2021/09/08 05:28:32;;;;;;;2.30;0.80;;;17.90;50.90;;;;;;5052715;28;20241;-61
2021/09/08 05:31:02;;;;;;;0.70;0.70;;;17.90;50.80;;;;;;5052241;28;20219;-62
2021/09/08 05:33:33;;;;;;;1.27;0.70;;;17.90;50.80;;;;;;5052153;28;20671;-62
2021/09/08 05:36:03;;;;;;;1.17;0.60;;;17.90;50.70;;;;;;5052256;28;20231;-55
2021/09/08 05:38:34;;;;;;;1.02;0.80;;;18.00;50.70;;;;;;5052365;28;20245;-56
2021/09/08 05:41:08;;;;;;;2.20;0.90;;;17.90;51.20;;;;;;5052151;28;20262;-52
2021/09/08 05:43:39;;;;;;;0.80;0.80;;;18.00;50.70;;;;;;5051771;28;20218;-52
2021/09/08 05:46:09;;;;;;;1.08;0.70;;;18.00;50.60;;;;;;5051650;28;20235;-46
2021/09/08 05:48:40;;;;;;;0.80;0.80;;;18.00;50.70;;;;;;5048350;28;20227;-55
2021/09/08 05:51:10;;;;;;;0.82;0.70;;;18.00;50.80;;;;;;5050576;28;20687;-57
2021/09/08 05:53:41;;;;;;;2.50;0.80;;;18.00;50.70;;;;;;5051937;28;20588;-51
2021/09/08 05:56:13;;;;;;;0.70;0.70;;;18.00;50.70;;;;;;5050936;28;20629;-55
2021/09/08 05:58:43;;;;;;;2.88;1.00;;;18.00;50.60;;;;;;5051127;28;20192;-56
2021/09/08 06:01:14;;;;;;;1.00;0.73;;;18.00;50.50;;;;;;5050992;28;20247;-56
2021/09/08 06:03:44;;;;;;;0.77;0.70;;;18.00;50.50;;;;;;5051563;28;20234;-53
2021/09/08 06:06:15;;;;;;;1.73;0.95;;;18.00;50.40;;;;;;5050718;28;20231;-48
2021/09/08 06:08:45;;;;;;;2.25;0.88;;;17.90;50.30;;;;;;5050204;28;20200;-59
2021/09/08 06:11:17;;;;;;;1.00;0.70;;;17.90;50.40;;;;;;5050923;28;20220;-54
2021/09/08 06:13:48;;;;;;;1.55;0.80;;;17.90;50.20;;;;;;5050851;28;20278;-48
2021/09/08 06:16:18;;;;;;;0.80;0.80;;;17.90;50.20;;;;;;5051733;28;20251;-61
2021/09/08 06:18:49;;;;;;;1.00;0.75;;;17.90;50.30;;;;;;5050361;28;20195;-63
2021/09/08 06:21:20;;;;;;;0.95;0.60;;;17.80;50.20;;;;;;5050321;28;20298;-61
2021/09/08 06:23:51;;;;;;;1.75;0.75;;;17.80;50.20;;;;;;5050838;28;20249;-48
2021/09/08 06:26:24;;;;;;;1.30;0.80;;;17.80;50.20;;;;;;5051377;28;20236;-55
2021/09/08 06:28:54;;;;;;;1.65;0.90;;;17.80;50.20;;;;;;5050221;28;20227;-51
2021/09/08 06:31:25;;;;;;;0.80;0.80;;;17.80;50.20;;;;;;5050938;28;20226;-57
2021/09/08 06:33:56;;;;;;;1.55;0.80;;;17.80;50.10;;;;;;5051167;28;20227;-56
2021/09/08 06:36:26;;;;;;;1.08;0.70;;;17.80;50.10;;;;;;5033103;28;20727;-49
2021/09/08 06:38:57;;;;;;;0.80;0.70;;;17.80;50.10;;;;;;5050907;28;20227;-60
2021/09/08 06:41:29;;;;;;;1.25;0.90;;;17.80;50.10;;;;;;5049257;28;20258;-60
2021/09/08 06:44:00;;;;;;;1.15;1.00;;;17.70;50.00;;;;;;5050300;28;20199;-63
2021/09/08 06:46:30;;;;;;;1.98;1.10;;;17.70;50.00;;;;;;5049700;28;20195;-60
2021/09/08 06:49:01;;;;;;;1.27;0.98;;;17.70;50.10;;;;;;5051030;28;20231;-53
2021/09/08 06:51:32;;;;;;;0.95;0.70;;;17.70;50.10;;;;;;5050277;28;20221;-58
2021/09/08 06:54:02;;;;;;;0.85;0.77;;;17.70;50.10;;;;;;5050963;28;20241;-53
2021/09/08 06:56:34;;;;;;;1.30;0.93;;;17.60;50.00;;;;;;5050666;28;20257;-54
2021/09/08 06:59:05;;;;;;;2.22;0.85;;;17.60;50.00;;;;;;5051264;28;20238;-58
2021/09/08 07:01:35;;;;;;;2.13;0.93;;;17.60;50.00;;;;;;5050444;28;20223;-53
2021/09/08 07:04:06;;;;;;;0.80;0.80;;;17.60;50.00;;;;;;5050372;28;20509;-54
2021/09/08 07:06:36;;;;;;;0.88;0.80;;;17.60;50.00;;;;;;5049997;28;20230;-54
2021/09/08 07:09:09;;;;;;;0.70;0.70;;;17.50;49.90;;;;;;5049624;28;20299;-50
2021/09/08 07:11:41;;;;;;;1.42;0.93;;;17.50;49.90;;;;;;5049566;28;20204;-55
2021/09/08 07:14:11;;;;;;;2.03;0.85;;;17.50;49.90;;;;;;5051594;28;20651;-61
2021/09/08 07:16:42;;;;;;;0.77;0.60;;;17.50;49.90;;;;;;5052450;28;20659;-54
2021/09/08 07:19:12;;;;;;;1.27;0.95;;;17.40;49.80;;;;;;5052472;28;20256;-53
2021/09/08 07:21:43;;;;;;;1.40;0.80;;;17.40;49.80;;;;;;5052366;28;20713;-55
2021/09/08 07:24:13;;;;;;;1.33;0.95;;;17.40;49.80;;;;;;5052231;28;20732;-52
2021/09/08 07:26:45;;;;;;;1.20;0.90;;;17.40;49.90;;;;;;5051191;28;20654;-60
2021/09/08 07:29:16;;;;;;;1.52;0.80;;;17.40;49.90;;;;;;5050705;28;20226;-51
2021/09/08 07:31:46;;;;;;;0.85;0.80;;;17.30;49.90;;;;;;5052483;28;20195;-55
2021/09/08 07:34:17;;;;;;;1.42;1.10;;;17.30;49.90;;;;;;5054716;28;20254;-61
2021/09/08 07:36:47;;;;;;;1.52;1.05;;;17.30;50.10;;;;;;5054622;28;20265;-51
2021/09/08 07:39:18;;;;;;;1.17;1.08;;;17.30;50.40;;;;;;5055109;28;20261;-49
2021/09/08 07:41:50;;;;;;;2.97;0.93;;;17.30;50.30;;;;;;5054545;28;20197;-48
2021/09/08 07:44:21;;;;;;;1.00;0.90;;;17.20;50.20;;;;;;5054682;28;20191;-52
2021/09/08 07:46:51;;;;;;;1.95;1.10;;;17.20;50.20;;;;;;5054706;28;20223;-50
2021/09/08 07:49:21;;;;;;;1.58;1.20;;;17.20;50.40;;;;;;5055563;28;20222;-46
2021/09/08 07:51:52;;;;;;;3.10;1.27;;;17.20;51.10;;;;;;5054630;28;20234;-44
2021/09/08 07:54:22;;;;;;;2.45;1.10;;;17.20;51.20;;;;;;5054278;28;20293;-50
2021/09/08 07:56:57;;;;;;;1.70;1.20;;;17.20;51.00;;;;;;5050652;28;20256;-57
2021/09/08 07:59:28;;;;;;;2.58;1.20;;;17.10;50.90;;;;;;5053237;28;20250;-54
2021/09/08 08:01:58;;;;;;;1.17;1.08;;;17.10;50.80;;;;;;5053468;28;20227;-54
2021/09/08 08:04:29;;;;;;;1.10;1.00;;;17.10;50.70;;;;;;5053348;28;20199;-62
2021/09/08 08:06:59;;;;;;;1.58;1.05;;;17.10;50.70;;;;;;5053397;28;20244;-54
2021/09/08 08:09:31;;;;;;;1.23;1.10;;;17.10;50.70;;;;;;5053299;28;20269;-57
2021/09/08 08:12:03;;;;;;;2.60;1.15;;;17.00;50.60;;;;;;5053016;28;20199;-62
2021/09/08 08:14:33;;;;;;;1.88;1.20;;;17.00;50.60;;;;;;5053293;28;20261;-54
2021/09/08 08:17:04;;;;;;;1.85;1.05;;;17.00;50.60;;;;;;5054023;28;20255;-51
2021/09/08 08:19:34;;;;;;;2.28;1.10;;;17.00;50.60;;;;;;5053187;28;20262;-59
2021/09/08 08:22:05;;;;;;;1.80;1.23;;;16.90;50.60;;;;;;5052622;28;20234;-56
2021/09/08 08:24:35;;;;;;;2.13;1.15;;;16.90;50.60;;;;;;5053436;28;20235;-49
2021/09/08 08:27:08;;;;;;;1.27;1.08;;;16.90;50.60;;;;;;5052522;28;20239;-51
2021/09/08 08:29:38;;;;;;;1.98;1.25;;;16.90;50.60;;;;;;5053329;28;20243;-47
2021/09/08 08:32:09;;;;;;;1.63;1.00;;;16.90;50.60;;;;;;5053706;28;20239;-50
2021/09/08 08:34:40;;;;;;;2.58;1.30;;;16.80;50.50;;;;;;5053184;28;20235;-64
2021/09/08 08:37:10;;;;;;;2.25;1.10;;;16.80;50.50;;;;;;5053076;28;20257;-49
2021/09/08 08:39:45;;;;;;;3.00;1.20;;;16.80;50.50;;;;;;5053334;28;20288;-53
2021/09/08 08:42:23;;;;;;;3.10;1.20;;;16.80;50.50;;;;;;5052354;28;20234;-63
2021/09/08 08:44:53;;;;;;;2.13;1.13;;;16.70;50.50;;;;;;5053032;28;20592;-54
2021/09/08 08:47:25;;;;;;;1.42;1.10;;;16.70;50.50;;;;;;5053105;28;20257;-49
2021/09/08 08:49:58;;;;;;;1.45;1.00;;;16.70;50.50;;;;;;5051223;28;20234;-53
2021/09/08 08:52:29;;;;;;;1.60;1.15;;;16.60;50.40;;;;;;5035593;28;20245;-64
2021/09/08 08:54:59;;;;;;;1.45;1.00;;;16.60;50.40;;;;;;5052861;28;20235;-56
2021/09/08 08:57:31;;;;;;;2.63;1.15;;;16.60;50.50;;;;;;5047125;28;20866;-49
2021/09/08 09:00:02;;;;;;;1.55;1.10;;;16.60;50.50;;;;;;5051630;28;20243;-53
2021/09/08 09:02:33;;;;;;;1.63;0.93;;;16.60;50.50;;;;;;5052456;28;20227;-57
2021/09/08 09:05:07;;;;;;;1.10;0.82;;;16.60;50.50;;;;;;5052469;28;20235;-59
2021/09/08 09:07:38;;;;;;;1.42;1.05;;;16.50;50.40;;;;;;5051590;28;20202;-56
2021/09/08 09:10:09;;;;;;;1.65;1.25;;;16.50;50.50;;;;;;5052327;28;20293;-59
2021/09/08 09:12:44;;;;;;;2.03;1.00;;;16.50;50.50;;;;;;5051381;28;20337;-52
2021/09/08 09:15:15;;;;;;;1.30;1.05;;;16.50;50.50;;;;;;5052485;28;20195;-50
2021/09/08 09:17:46;;;;;;;2.15;1.05;;;16.50;50.50;;;;;;5052202;28;20306;-61
2021/09/08 09:20:18;;;;;;;1.75;1.10;;;16.40;50.40;;;;;;5051740;28;20269;-56
2021/09/08 09:22:49;;;;;;;3.00;1.40;;;16.40;50.40;;;;;;5051530;28;20196;-56
2021/09/08 09:25:19;;;;;;;2.67;1.23;;;16.40;50.50;;;;;;5032326;28;20228;-49
2021/09/08 09:27:52;;;;;;;6.72;1.70;;;16.40;50.50;;;;;;5031531;28;20219;-49
2021/09/08 09:30:23;;;;;;;24.45;2.92;;;16.30;50.50;;;;;;5032188;28;20556;-51
2021/09/08 09:32:54;;;;;;;15.63;2.60;;;16.30;50.50;;;;;;5031014;28;20228;-48
2021/09/08 09:35:25;;;;;;;16.05;2.40;;;16.30;50.50;;;;;;5031006;28;20247;-55
2021/09/08 09:37:56;;;;;;;7.28;1.67;;;16.30;50.50;;;;;;5031405;28;20317;-64
2021/09/08 09:40:27;;;;;;;6.00;1.73;;;16.20;50.40;;;;;;5031375;28;20278;-61
2021/09/08 09:43:04;;;;;;;12.50;1.63;;;16.20;50.40;;;;;;5032153;28;20192;-55
2021/09/08 09:45:36;;;;;;;9.15;2.35;;;16.20;51.00;;;;;;5030914;28;20278;-46
2021/09/08 09:48:07;;;;;;;6.47;1.70;;;16.20;50.50;;;;;;5031891;28;20200;-61
2021/09/08 09:50:37;;;;;;;5.90;1.58;;;16.20;50.50;;;;;;5031729;28;20220;-65
2021/09/08 09:53:07;;;;;;;5.97;1.80;;;16.20;50.50;;;;;;5034046;28;20242;-63
2021/09/08 09:55:38;;;;;;;4.93;1.88;;;16.20;50.50;;;;;;5050336;28;20227;-61
2021/09/08 09:58:10;;;;;;;8.90;1.92;;;16.10;50.40;;;;;;5051249;28;20285;-63
2021/09/08 10:00:41;;;;;;;7.20;2.10;;;16.10;50.40;;;;;;5050179;28;20211;-61
2021/09/08 10:03:11;;;;;;;8.02;2.00;;;16.10;50.40;;;;;;5050346;28;20249;-57
2021/09/08 10:05:42;;;;;;;4.97;1.95;;;16.10;50.50;;;;;;5051175;28;20195;-56
2021/09/08 10:08:12;;;;;;;4.45;1.67;;;16.00;50.40;;;;;;5050826;28;20722;-52
2021/09/08 10:10:43;;;;;;;8.45;2.33;;;16.00;50.40;;;;;;5050965;28;20454;-65
2021/09/08 10:13:17;;;;;;;8.07;2.25;;;16.00;50.40;;;;;;5050647;28;20235;-52
2021/09/08 10:15:50;;;;;;;7.57;2.20;;;16.00;50.50;;;;;;5050255;28;20241;-62
2021/09/08 10:18:22;;;;;;;5.75;2.20;;;16.00;50.50;;;;;;5050535;28;20223;-60
2021/09/08 10:20:56;;;;;;;5.70;2.20;;;15.90;50.40;;;;;;5050939;28;20281;-53
2021/09/08 10:23:26;;;;;;;4.22;1.73;;;15.90;50.50;;;;;;5050441;28;20238;-55
2021/09/08 10:25:59;;;;;;;5.40;2.28;;;15.90;50.50;;;;;;5051348;28;20727;-51
2021/09/08 10:28:31;;;;;;;3.85;1.80;;;15.90;50.50;;;;;;5051280;28;20200;-45
2021/09/08 10:31:01;;;;;;;4.03;1.75;;;15.80;50.80;;;;;;5050268;28;20219;-52
2021/09/08 10:33:36;;;;;;;4.20;1.88;;;15.80;50.40;;;;;;5051221;28;20253;-61
2021/09/08 10:36:07;;;;;;;3.30;1.88;;;15.80;50.40;;;;;;5049941;28;20234;-50
2021/09/08 10:38:38;;;;;;;4.25;1.70;;;15.80;50.40;;;;;;5051018;28;20255;-64
2021/09/08 10:41:09;;;;;;;4.25;2.10;;;15.80;50.40;;;;;;5050497;28;20247;-52
2021/09/08 10:43:41;;;;;;;6.30;2.13;;;15.80;50.50;;;;;;5050689;28;20199;-48
2021/09/08 10:46:12;;;;;;;3.63;1.95;;;15.80;50.40;;;;;;5049555;28;20333;-56
2021/09/08 10:48:43;;;;;;;4.88;2.00;;;15.70;50.40;;;;;;5050422;28;20235;-63
2021/09/08 10:51:19;;;;;;;4.30;2.42;;;15.70;50.40;;;;;;5049864;28;20251;-64
2021/09/08 10:54:02;;;;;;;5.10;2.25;;;15.70;50.50;;;;;;5049805;28;20203;-64
2021/09/08 10:56:42;;;;;;;5.13;1.60;;;15.60;50.40;;;;;;5050086;28;20227;-51
2021/09/08 10:59:15;;;;;;;5.60;2.50;;;15.70;50.40;;;;;;5050831;28;20697;-53
2021/09/08 11:01:45;;;;;;;4.15;1.77;;;15.60;50.40;;;;;;5051075;28;20675;-49
2021/09/08 11:04:18;;;;;;;4.90;2.03;;;15.60;50.40;;;;;;5050801;28;20233;-46
2021/09/08 11:06:49;;;;;;;5.68;2.10;;;15.60;50.40;;;;;;5049444;28;20230;-44
2021/09/08 11:09:20;;;;;;;3.97;2.10;;;15.60;50.40;;;;;;5050331;28;20702;-53
2021/09/08 11:11:54;;;;;;;2.97;1.60;;;15.60;50.40;;;;;;5050597;28;20231;-54
2021/09/08 11:14:49;;;;;;;5.13;2.20;;;15.60;50.40;;;;;;5050474;28;20198;-63
2021/09/08 11:17:24;;;;;;;4.20;1.92;;;15.50;50.40;;;;;;5050206;28;20552;-60
2021/09/08 11:19:54;;;;;;;2.85;2.13;;;15.50;50.40;;;;;;5050226;28;20269;-62
2021/09/08 11:22:25;;;;;;;3.05;1.85;;;15.50;50.40;;;;;;5050407;28;20265;-56
2021/09/08 11:25:08;;;;;;;4.95;2.30;;;15.50;50.40;;;;;;5050208;28;20231;-64
2021/09/08 11:27:39;;;;;;;5.57;2.28;;;15.50;50.40;;;;;;5050490;28;20231;-63
2021/09/08 11:30:12;;;;;;;3.85;1.98;;;15.50;50.40;;;;;;5050682;28;20223;-64
2021/09/08 11:33:02;;;;;;;4.32;1.80;;;15.40;50.30;;;;;;5050942;28;20689;-50
2021/09/08 11:35:40;;;;;;;3.13;1.92;;;15.40;50.40;;;;;;5045885;28;20671;-54
2021/09/08 11:38:15;;;;;;;5.75;1.95;;;15.40;50.30;;;;;;5051001;28;20255;-64
2021/09/08 11:40:47;;;;;;;2.63;1.73;;;15.40;50.30;;;;;;5050340;28;20261;-59
2021/09/08 11:43:18;;;;;;;2.67;1.80;;;15.30;50.30;;;;;;5050734;28;20421;-57
2021/09/08 11:45:50;;;;;;;3.55;1.73;;;15.30;50.40;;;;;;5050434;28;20231;-51
2021/09/08 11:48:27;;;;;;;2.30;1.58;;;15.30;50.30;;;;;;5050177;28;20239;-63
2021/09/08 11:51:04;;;;;;;4.32;2.08;;;15.30;50.40;;;;;;5050361;28;20297;-44
2021/09/08 11:53:35;;;;;;;2.40;1.60;;;15.30;50.40;;;;;;5050529;28;20230;-47
2021/09/08 11:56:09;;;;;;;3.75;1.58;;;15.20;50.90;;;;;;5050229;28;20195;-54
2021/09/08 11:58:40;;;;;;;4.07;1.98;;;15.20;50.30;;;;;;5049981;28;20268;-59
2021/09/08 12:01:12;;;;;;;4.70;1.92;;;15.20;50.30;;;;;;5050454;28;20219;-57
2021/09/08 12:03:43;;;;;;;3.80;2.08;;;15.20;50.30;;;;;;5050380;28;20231;-56
2021/09/08 12:06:15;;;;;;;4.55;1.80;;;15.20;50.30;;;;;;5048128;28;20195;-53
2021/09/08 12:08:56;;;;;;;3.83;2.08;;;15.20;50.40;;;;;;5048936;28;20200;-54
2021/09/08 12:11:36;;;;;;;3.53;1.85;;;15.10;50.30;;;;;;5050394;28;20251;-49
2021/09/08 12:14:20;;;;;;;2.42;1.65;;;15.10;50.30;;;;;;5049529;28;20348;-46
2021/09/08 12:16:53;;;;;;;3.00;1.58;;;15.10;50.40;;;;;;5049876;28;20227;-47
2021/09/08 12:19:28;;;;;;;3.58;1.88;;;15.10;50.30;;;;;;5053375;28;20231;-46
2021/09/08 12:22:09;;;;;;;2.53;1.52;;;15.10;50.40;;;;;;5053850;28;20297;-54
2021/09/08 12:24:42;;;;;;;2.80;1.50;;;15.10;50.40;;;;;;5053253;28;20536;-61
2021/09/08 12:27:43;;;;;;;3.28;1.50;;;15.10;50.40;;;;;;5053872;28;20195;-64
2021/09/08 12:30:23;;;;;;;2.67;1.77;;;15.00;50.30;;;;;;4971130;28;20246;-60
2021/09/08 12:32:56;;;;;;;3.88;1.63;;;15.00;50.30;;;;;;5043421;28;20195;-60
2021/09/08 12:35:43;;;;;;;1.90;1.50;;;15.00;50.30;;;;;;5040294;28;20251;-64
2021/09/08 12:38:33;;;;;;;2.80;1.58;;;15.00;50.30;;;;;;5053237;28;20625;-64
2021/09/08 12:41:13;;;;;;;2.97;1.58;;;15.00;50.30;;;;;;5052284;28;20234;-64
2021/09/08 12:43:44;;;;;;;2.72;1.67;;;14.90;50.20;;;;;;5051809;28;20232;-64
2021/09/08 12:46:15;;;;;;;2.90;1.80;;;14.90;50.30;;;;;;5052345;28;20238;-59
2021/09/08 12:48:47;;;;;;;4.03;2.20;;;14.90;50.30;;;;;;5051932;28;20249;-63
2021/09/08 12:51:18;;;;;;;3.15;1.85;;;14.90;50.30;;;;;;5052688;28;20258;-62
2021/09/08 12:53:48;;;;;;;2.05;1.70;;;14.80;50.30;;;;;;5052197;28;20242;-63
2021/09/08 12:56:19;;;;;;;2.50;1.60;;;14.80;50.30;;;;;;5052432;28;20249;-59
2021/09/08 12:58:49;;;;;;;3.30;1.77;;;14.80;50.40;;;;;;5051868;28;20258;-62
2021/09/08 13:01:21;;;;;;;1.75;1.40;;;14.80;50.40;;;;;;5052326;28;20314;-54
2021/09/08 13:03:53;;;;;;;4.40;1.83;;;14.80;50.40;;;;;;5052440;28;20200;-49
2021/09/08 13:06:24;;;;;;;1.90;1.40;;;14.80;50.40;;;;;;5052609;28;20200;-47
2021/09/08 13:08:54;;;;;;;2.78;1.50;;;14.80;50.40;;;;;;5051904;28;20203;-48